sensor_id;sensor_type;location;lat;lon;timestamp;P1;durP1;ratioP1;P2;durP2;ratioP2
22015;SDS011;64992;51.698;-0.292;2024-03-02T00:01:07;5.70;;;2.95;;
22015;SDS011;64992;51.698;-0.292;2024-03-02T00:03:33;4.72;;;2.45;;
22015;SDS011;64992;51.698;-0.292;2024-03-02T00:05:59;7.72;;;2.78;;
22015;SDS011;64992;51.698;-0.292;2024-03-02T00:08:25;3.45;;;1.92;;
22015;SDS011;64992;51.698;-0.292;2024-03-02T00:10:51;9.98;;;2.17;;
22015;SDS011;64992;51.698;-0.292;2024-03-02T00:13:19;7.32;;;2.10;;
22015;SDS011;64992;51.698;-0.292;2024-03-02T00:15:53;10.27;;;2.33;;
22015;SDS011;64992;51.698;-0.292;2024-03-02T00:18:20;8.57;;;2.17;;
22015;SDS011;64992;51.698;-0.292;2024-03-02T00:20:47;7.43;;;2.17;;
22015;SDS011;64992;51.698;-0.292;2024-03-02T00:23:16;7.13;;;1.75;;
22015;SDS011;64992;51.698;-0.292;2024-03-02T00:25:46;5.78;;;1.63;;
22015;SDS011;64992;51.698;-0.292;2024-03-02T00:28:14;6.13;;;2.50;;
22015;SDS011;64992;51.698;-0.292;2024-03-02T00:33:08;10.25;;;2.40;;
22015;SDS011;64992;51.698;-0.292;2024-03-02T00:35:35;7.00;;;2.22;;
22015;SDS011;64992;51.698;-0.292;2024-03-02T00:38:04;7.45;;;2.05;;
22015;SDS011;64992;51.698;-0.292;2024-03-02T00:40:31;14.57;;;2.65;;
22015;SDS011;64992;51.698;-0.292;2024-03-02T00:42:57;4.32;;;2.15;;
22015;SDS011;64992;51.698;-0.292;2024-03-02T00:45:24;6.30;;;2.00;;
22015;SDS011;64992;51.698;-0.292;2024-03-02T00:47:51;5.65;;;1.80;;
22015;SDS011;64992;51.698;-0.292;2024-03-02T00:50:17;7.88;;;2.38;;
22015;SDS011;64992;51.698;-0.292;2024-03-02T00:52:43;9.40;;;2.10;;
22015;SDS011;64992;51.698;-0.292;2024-03-02T00:55:09;9.75;;;2.40;;
22015;SDS011;64992;51.698;-0.292;2024-03-02T00:57:36;11.25;;;2.33;;
22015;SDS011;64992;51.698;-0.292;2024-03-02T01:00:02;5.95;;;2.10;;
22015;SDS011;64992;51.698;-0.292;2024-03-02T01:02:33;8.85;;;2.10;;
22015;SDS011;64992;51.698;-0.292;2024-03-02T01:04:59;11.25;;;2.05;;
22015;SDS011;64992;51.698;-0.292;2024-03-02T01:07:26;7.00;;;2.08;;
22015;SDS011;64992;51.698;-0.292;2024-03-02T01:09:52;10.85;;;2.75;;
22015;SDS011;64992;51.698;-0.292;2024-03-02T01:12:18;11.15;;;2.50;;
22015;SDS011;64992;51.698;-0.292;2024-03-02T01:14:44;16.10;;;2.47;;
22015;SDS011;64992;51.698;-0.292;2024-03-02T01:17:10;12.63;;;3.05;;
22015;SDS011;64992;51.698;-0.292;2024-03-02T01:19:36;15.88;;;2.72;;
22015;SDS011;64992;51.698;-0.292;2024-03-02T01:22:03;16.90;;;3.28;;
22015;SDS011;64992;51.698;-0.292;2024-03-02T01:24:30;12.93;;;2.22;;
22015;SDS011;64992;51.698;-0.292;2024-03-02T01:26:56;14.65;;;2.35;;
22015;SDS011;64992;51.698;-0.292;2024-03-02T01:29:22;6.18;;;2.30;;
22015;SDS011;64992;51.698;-0.292;2024-03-02T01:31:48;11.52;;;2.22;;
22015;SDS011;64992;51.698;-0.292;2024-03-02T01:34:15;16.13;;;2.22;;
22015;SDS011;64992;51.698;-0.292;2024-03-02T01:36:42;5.90;;;2.25;;
22015;SDS011;64992;51.698;-0.292;2024-03-02T01:39:08;9.75;;;2.45;;
22015;SDS011;64992;51.698;-0.292;2024-03-02T01:41:34;8.23;;;1.90;;
22015;SDS011;64992;51.698;-0.292;2024-03-02T01:44:01;17.30;;;2.47;;
22015;SDS011;64992;51.698;-0.292;2024-03-02T01:46:27;11.27;;;2.40;;
22015;SDS011;64992;51.698;-0.292;2024-03-02T01:48:53;9.43;;;3.38;;
22015;SDS011;64992;51.698;-0.292;2024-03-02T01:51:19;7.20;;;2.45;;
22015;SDS011;64992;51.698;-0.292;2024-03-02T01:53:45;6.38;;;2.45;;
22015;SDS011;64992;51.698;-0.292;2024-03-02T01:56:11;12.32;;;3.38;;
22015;SDS011;64992;51.698;-0.292;2024-03-02T01:58:37;12.38;;;4.43;;
22015;SDS011;64992;51.698;-0.292;2024-03-02T02:01:03;13.45;;;3.38;;
22015;SDS011;64992;51.698;-0.292;2024-03-02T02:03:29;10.07;;;3.25;;
22015;SDS011;64992;51.698;-0.292;2024-03-02T02:05:55;10.07;;;2.03;;
22015;SDS011;64992;51.698;-0.292;2024-03-02T02:08:22;9.45;;;2.08;;
22015;SDS011;64992;51.698;-0.292;2024-03-02T02:10:48;6.13;;;1.73;;
22015;SDS011;64992;51.698;-0.292;2024-03-02T02:13:14;11.13;;;1.90;;
22015;SDS011;64992;51.698;-0.292;2024-03-02T02:15:40;4.70;;;1.58;;
22015;SDS011;64992;51.698;-0.292;2024-03-02T02:18:06;11.45;;;1.92;;
22015;SDS011;64992;51.698;-0.292;2024-03-02T02:20:32;4.32;;;1.63;;
22015;SDS011;64992;51.698;-0.292;2024-03-02T02:22:59;4.05;;;1.33;;
22015;SDS011;64992;51.698;-0.292;2024-03-02T02:25:26;7.95;;;1.10;;
22015;SDS011;64992;51.698;-0.292;2024-03-02T02:27:52;7.38;;;1.60;;
22015;SDS011;64992;51.698;-0.292;2024-03-02T02:30:23;4.00;;;1.15;;
22015;SDS011;64992;51.698;-0.292;2024-03-02T02:32:49;5.95;;;1.73;;
22015;SDS011;64992;51.698;-0.292;2024-03-02T02:35:16;6.63;;;1.40;;
22015;SDS011;64992;51.698;-0.292;2024-03-02T02:37:42;3.90;;;1.40;;
22015;SDS011;64992;51.698;-0.292;2024-03-02T02:40:08;4.55;;;1.58;;
22015;SDS011;64992;51.698;-0.292;2024-03-02T02:42:35;2.67;;;1.38;;
22015;SDS011;64992;51.698;-0.292;2024-03-02T02:45:01;6.47;;;1.42;;
22015;SDS011;64992;51.698;-0.292;2024-03-02T02:47:27;4.05;;;1.20;;
22015;SDS011;64992;51.698;-0.292;2024-03-02T02:49:54;9.40;;;1.60;;
22015;SDS011;64992;51.698;-0.292;2024-03-02T02:52:20;6.13;;;1.73;;
22015;SDS011;64992;51.698;-0.292;2024-03-02T02:54:47;3.58;;;1.50;;
22015;SDS011;64992;51.698;-0.292;2024-03-02T02:57:13;2.40;;;1.30;;
22015;SDS011;64992;51.698;-0.292;2024-03-02T02:59:39;6.28;;;1.73;;
22015;SDS011;64992;51.698;-0.292;2024-03-02T03:02:05;4.25;;;2.00;;
22015;SDS011;64992;51.698;-0.292;2024-03-02T03:04:31;3.28;;;1.60;;
22015;SDS011;64992;51.698;-0.292;2024-03-02T03:06:57;9.55;;;2.45;;
22015;SDS011;64992;51.698;-0.292;2024-03-02T03:09:23;4.43;;;1.50;;
22015;SDS011;64992;51.698;-0.292;2024-03-02T03:11:49;4.30;;;1.60;;
22015;SDS011;64992;51.698;-0.292;2024-03-02T03:14:15;3.25;;;1.05;;
22015;SDS011;64992;51.698;-0.292;2024-03-02T03:16:42;3.22;;;1.30;;
22015;SDS011;64992;51.698;-0.292;2024-03-02T03:19:08;6.90;;;1.45;;
22015;SDS011;64992;51.698;-0.292;2024-03-02T03:21:34;4.22;;;1.50;;
22015;SDS011;64992;51.698;-0.292;2024-03-02T03:24:00;4.10;;;1.58;;
22015;SDS011;64992;51.698;-0.292;2024-03-02T03:26:26;5.50;;;2.10;;
22015;SDS011;64992;51.698;-0.292;2024-03-02T03:28:52;6.13;;;2.15;;
22015;SDS011;64992;51.698;-0.292;2024-03-02T03:31:18;6.28;;;1.83;;
22015;SDS011;64992;51.698;-0.292;2024-03-02T03:33:44;10.40;;;1.92;;
22015;SDS011;64992;51.698;-0.292;2024-03-02T03:36:10;8.85;;;2.17;;
22015;SDS011;64992;51.698;-0.292;2024-03-02T03:38:36;9.40;;;2.60;;
22015;SDS011;64992;51.698;-0.292;2024-03-02T03:41:02;7.40;;;2.00;;
22015;SDS011;64992;51.698;-0.292;2024-03-02T03:43:29;6.90;;;2.45;;
22015;SDS011;64992;51.698;-0.292;2024-03-02T03:45:55;11.63;;;2.63;;
22015;SDS011;64992;51.698;-0.292;2024-03-02T03:48:21;7.82;;;2.80;;
22015;SDS011;64992;51.698;-0.292;2024-03-02T03:50:47;11.55;;;3.95;;
22015;SDS011;64992;51.698;-0.292;2024-03-02T03:53:13;15.98;;;3.95;;
22015;SDS011;64992;51.698;-0.292;2024-03-02T03:55:39;17.30;;;3.30;;
22015;SDS011;64992;51.698;-0.292;2024-03-02T03:58:06;11.45;;;4.43;;
22015;SDS011;64992;51.698;-0.292;2024-03-02T04:00:32;23.60;;;7.65;;
22015;SDS011;64992;51.698;-0.292;2024-03-02T04:02:58;17.08;;;4.68;;
22015;SDS011;64992;51.698;-0.292;2024-03-02T04:05:24;13.95;;;3.30;;
22015;SDS011;64992;51.698;-0.292;2024-03-02T04:07:50;16.35;;;3.20;;
22015;SDS011;64992;51.698;-0.292;2024-03-02T04:10:16;13.93;;;3.35;;
22015;SDS011;64992;51.698;-0.292;2024-03-02T04:12:42;24.98;;;3.42;;
22015;SDS011;64992;51.698;-0.292;2024-03-02T04:15:08;21.17;;;4.13;;
22015;SDS011;64992;51.698;-0.292;2024-03-02T04:17:34;27.48;;;3.35;;
22015;SDS011;64992;51.698;-0.292;2024-03-02T04:20:01;17.08;;;3.63;;
22015;SDS011;64992;51.698;-0.292;2024-03-02T04:22:30;20.40;;;3.05;;
22015;SDS011;64992;51.698;-0.292;2024-03-02T04:24:56;23.17;;;4.15;;
22015;SDS011;64992;51.698;-0.292;2024-03-02T04:27:22;17.00;;;3.38;;
22015;SDS011;64992;51.698;-0.292;2024-03-02T04:29:48;21.70;;;3.78;;
22015;SDS011;64992;51.698;-0.292;2024-03-02T04:32:14;22.05;;;3.38;;
22015;SDS011;64992;51.698;-0.292;2024-03-02T04:34:41;20.35;;;3.47;;
22015;SDS011;64992;51.698;-0.292;2024-03-02T04:37:07;18.23;;;3.50;;
22015;SDS011;64992;51.698;-0.292;2024-03-02T04:39:34;16.60;;;2.97;;
22015;SDS011;64992;51.698;-0.292;2024-03-02T04:42:00;12.75;;;3.90;;
22015;SDS011;64992;51.698;-0.292;2024-03-02T04:44:28;21.58;;;4.13;;
22015;SDS011;64992;51.698;-0.292;2024-03-02T04:46:54;23.58;;;4.15;;
22015;SDS011;64992;51.698;-0.292;2024-03-02T04:49:20;25.30;;;4.20;;
22015;SDS011;64992;51.698;-0.292;2024-03-02T04:51:46;20.05;;;3.40;;
22015;SDS011;64992;51.698;-0.292;2024-03-02T04:54:12;21.77;;;4.20;;
22015;SDS011;64992;51.698;-0.292;2024-03-02T04:56:39;21.65;;;3.40;;
22015;SDS011;64992;51.698;-0.292;2024-03-02T04:59:10;23.95;;;3.20;;
22015;SDS011;64992;51.698;-0.292;2024-03-02T05:01:36;21.42;;;4.78;;
22015;SDS011;64992;51.698;-0.292;2024-03-02T05:04:02;26.33;;;4.05;;
22015;SDS011;64992;51.698;-0.292;2024-03-02T05:06:28;24.30;;;3.72;;
22015;SDS011;64992;51.698;-0.292;2024-03-02T05:08:55;23.20;;;4.07;;
22015;SDS011;64992;51.698;-0.292;2024-03-02T05:11:21;24.30;;;4.15;;
22015;SDS011;64992;51.698;-0.292;2024-03-02T05:14:04;18.50;;;3.50;;
22015;SDS011;64992;51.698;-0.292;2024-03-02T05:16:37;20.05;;;3.75;;
22015;SDS011;64992;51.698;-0.292;2024-03-02T05:19:06;34.78;;;4.00;;
22015;SDS011;64992;51.698;-0.292;2024-03-02T05:21:33;21.10;;;3.38;;
22015;SDS011;64992;51.698;-0.292;2024-03-02T05:23:59;13.68;;;4.13;;
22015;SDS011;64992;51.698;-0.292;2024-03-02T05:26:25;21.92;;;4.25;;
22015;SDS011;64992;51.698;-0.292;2024-03-02T05:28:52;17.70;;;2.72;;
22015;SDS011;64992;51.698;-0.292;2024-03-02T05:31:18;21.33;;;3.58;;
22015;SDS011;64992;51.698;-0.292;2024-03-02T05:33:44;23.17;;;4.43;;
22015;SDS011;64992;51.698;-0.292;2024-03-02T05:36:10;15.00;;;3.17;;
22015;SDS011;64992;51.698;-0.292;2024-03-02T05:38:36;14.20;;;2.92;;
22015;SDS011;64992;51.698;-0.292;2024-03-02T05:41:02;24.75;;;5.72;;
22015;SDS011;64992;51.698;-0.292;2024-03-02T05:43:29;19.65;;;3.25;;
22015;SDS011;64992;51.698;-0.292;2024-03-02T05:45:55;20.40;;;4.10;;
22015;SDS011;64992;51.698;-0.292;2024-03-02T05:48:22;23.77;;;4.78;;
22015;SDS011;64992;51.698;-0.292;2024-03-02T05:50:47;25.33;;;4.30;;
22015;SDS011;64992;51.698;-0.292;2024-03-02T05:53:13;22.20;;;3.67;;
22015;SDS011;64992;51.698;-0.292;2024-03-02T05:55:40;11.63;;;2.53;;
22015;SDS011;64992;51.698;-0.292;2024-03-02T05:58:06;17.38;;;3.88;;
22015;SDS011;64992;51.698;-0.292;2024-03-02T06:01:02;24.30;;;4.57;;
22015;SDS011;64992;51.698;-0.292;2024-03-02T06:03:30;21.77;;;3.40;;
22015;SDS011;64992;51.698;-0.292;2024-03-02T06:05:56;28.27;;;3.58;;
22015;SDS011;64992;51.698;-0.292;2024-03-02T06:08:22;25.95;;;4.05;;
22015;SDS011;64992;51.698;-0.292;2024-03-02T06:10:49;14.07;;;3.83;;
22015;SDS011;64992;51.698;-0.292;2024-03-02T06:13:15;18.35;;;3.63;;
22015;SDS011;64992;51.698;-0.292;2024-03-02T06:15:41;16.15;;;3.22;;
22015;SDS011;64992;51.698;-0.292;2024-03-02T06:18:07;16.45;;;3.70;;
22015;SDS011;64992;51.698;-0.292;2024-03-02T06:20:33;21.75;;;4.03;;
22015;SDS011;64992;51.698;-0.292;2024-03-02T06:23:00;28.63;;;4.22;;
22015;SDS011;64992;51.698;-0.292;2024-03-02T06:25:26;32.10;;;4.93;;
22015;SDS011;64992;51.698;-0.292;2024-03-02T06:27:53;25.35;;;4.18;;
22015;SDS011;64992;51.698;-0.292;2024-03-02T06:30:19;17.05;;;5.03;;
22015;SDS011;64992;51.698;-0.292;2024-03-02T06:32:45;24.67;;;4.32;;
22015;SDS011;64992;51.698;-0.292;2024-03-02T06:35:11;17.95;;;3.22;;
22015;SDS011;64992;51.698;-0.292;2024-03-02T06:37:37;22.65;;;4.85;;
22015;SDS011;64992;51.698;-0.292;2024-03-02T06:40:07;14.90;;;4.28;;
22015;SDS011;64992;51.698;-0.292;2024-03-02T06:42:33;18.15;;;3.80;;
22015;SDS011;64992;51.698;-0.292;2024-03-02T06:45:00;19.55;;;4.05;;
22015;SDS011;64992;51.698;-0.292;2024-03-02T06:47:26;14.48;;;3.20;;
22015;SDS011;64992;51.698;-0.292;2024-03-02T06:49:52;11.02;;;2.03;;
22015;SDS011;64992;51.698;-0.292;2024-03-02T06:52:18;7.93;;;2.10;;
22015;SDS011;64992;51.698;-0.292;2024-03-02T06:54:45;8.82;;;1.77;;
22015;SDS011;64992;51.698;-0.292;2024-03-02T06:57:11;11.70;;;2.50;;
22015;SDS011;64992;51.698;-0.292;2024-03-02T06:59:39;14.77;;;2.97;;
22015;SDS011;64992;51.698;-0.292;2024-03-02T07:02:05;16.17;;;2.20;;
22015;SDS011;64992;51.698;-0.292;2024-03-02T07:04:31;20.08;;;3.00;;
22015;SDS011;64992;51.698;-0.292;2024-03-02T07:06:57;14.23;;;2.75;;
22015;SDS011;64992;51.698;-0.292;2024-03-02T07:09:23;24.35;;;4.00;;
22015;SDS011;64992;51.698;-0.292;2024-03-02T07:11:51;20.85;;;3.13;;
22015;SDS011;64992;51.698;-0.292;2024-03-02T07:14:17;21.85;;;3.38;;
22015;SDS011;64992;51.698;-0.292;2024-03-02T07:16:43;23.70;;;4.03;;
22015;SDS011;64992;51.698;-0.292;2024-03-02T07:19:09;14.10;;;3.70;;
22015;SDS011;64992;51.698;-0.292;2024-03-02T07:21:36;12.82;;;3.58;;
22015;SDS011;64992;51.698;-0.292;2024-03-02T07:24:03;20.92;;;3.33;;
22015;SDS011;64992;51.698;-0.292;2024-03-02T07:26:30;22.83;;;3.88;;
22015;SDS011;64992;51.698;-0.292;2024-03-02T07:28:56;27.92;;;4.05;;
22015;SDS011;64992;51.698;-0.292;2024-03-02T07:31:22;16.75;;;3.30;;
22015;SDS011;64992;51.698;-0.292;2024-03-02T07:33:48;19.52;;;3.40;;
22015;SDS011;64992;51.698;-0.292;2024-03-02T07:36:14;17.25;;;3.45;;
22015;SDS011;64992;51.698;-0.292;2024-03-02T07:38:41;19.23;;;3.45;;
22015;SDS011;64992;51.698;-0.292;2024-03-02T07:41:09;16.20;;;3.13;;
22015;SDS011;64992;51.698;-0.292;2024-03-02T07:43:36;9.07;;;2.42;;
22015;SDS011;64992;51.698;-0.292;2024-03-02T07:46:02;10.43;;;2.42;;
22015;SDS011;64992;51.698;-0.292;2024-03-02T07:48:28;13.57;;;2.40;;
22015;SDS011;64992;51.698;-0.292;2024-03-02T07:50:56;14.65;;;2.97;;
22015;SDS011;64992;51.698;-0.292;2024-03-02T07:53:22;13.60;;;2.30;;
22015;SDS011;64992;51.698;-0.292;2024-03-02T07:55:48;14.48;;;2.50;;
22015;SDS011;64992;51.698;-0.292;2024-03-02T07:58:14;9.48;;;2.17;;
22015;SDS011;64992;51.698;-0.292;2024-03-02T08:00:41;10.88;;;2.45;;
22015;SDS011;64992;51.698;-0.292;2024-03-02T08:03:07;12.73;;;2.83;;
22015;SDS011;64992;51.698;-0.292;2024-03-02T08:05:36;19.15;;;2.70;;
22015;SDS011;64992;51.698;-0.292;2024-03-02T08:08:03;10.77;;;2.35;;
22015;SDS011;64992;51.698;-0.292;2024-03-02T08:10:29;11.30;;;3.15;;
22015;SDS011;64992;51.698;-0.292;2024-03-02T08:12:55;13.05;;;2.42;;
22015;SDS011;64992;51.698;-0.292;2024-03-02T08:15:21;16.00;;;2.88;;
22015;SDS011;64992;51.698;-0.292;2024-03-02T08:17:47;16.00;;;2.50;;
22015;SDS011;64992;51.698;-0.292;2024-03-02T08:20:14;9.00;;;2.28;;
22015;SDS011;64992;51.698;-0.292;2024-03-02T08:22:40;8.75;;;1.63;;
22015;SDS011;64992;51.698;-0.292;2024-03-02T08:25:07;12.98;;;1.70;;
22015;SDS011;64992;51.698;-0.292;2024-03-02T08:27:33;7.65;;;1.63;;
22015;SDS011;64992;51.698;-0.292;2024-03-02T08:29:59;9.00;;;1.90;;
22015;SDS011;64992;51.698;-0.292;2024-03-02T08:32:25;9.07;;;1.55;;
22015;SDS011;64992;51.698;-0.292;2024-03-02T08:34:51;24.70;;;2.42;;
22015;SDS011;64992;51.698;-0.292;2024-03-02T08:37:18;8.88;;;1.55;;
22015;SDS011;64992;51.698;-0.292;2024-03-02T08:39:44;10.77;;;2.38;;
22015;SDS011;64992;51.698;-0.292;2024-03-02T08:42:11;46.47;;;3.65;;
22015;SDS011;64992;51.698;-0.292;2024-03-02T08:44:37;2.33;;;1.02;;
22015;SDS011;64992;51.698;-0.292;2024-03-02T08:47:03;1.98;;;0.90;;
22015;SDS011;64992;51.698;-0.292;2024-03-02T08:49:29;2.92;;;1.10;;
22015;SDS011;64992;51.698;-0.292;2024-03-02T08:51:55;6.60;;;1.17;;
22015;SDS011;64992;51.698;-0.292;2024-03-02T08:54:21;10.82;;;1.48;;
22015;SDS011;64992;51.698;-0.292;2024-03-02T08:56:48;32.40;;;2.75;;
22015;SDS011;64992;51.698;-0.292;2024-03-02T08:59:14;4.70;;;1.48;;
22015;SDS011;64992;51.698;-0.292;2024-03-02T09:01:40;6.05;;;1.25;;
22015;SDS011;64992;51.698;-0.292;2024-03-02T09:04:07;2.72;;;0.85;;
22015;SDS011;64992;51.698;-0.292;2024-03-02T09:06:36;6.15;;;0.98;;
22015;SDS011;64992;51.698;-0.292;2024-03-02T09:09:02;2.92;;;1.00;;
22015;SDS011;64992;51.698;-0.292;2024-03-02T09:11:29;3.05;;;0.80;;
22015;SDS011;64992;51.698;-0.292;2024-03-02T09:13:55;2.15;;;0.90;;
22015;SDS011;64992;51.698;-0.292;2024-03-02T09:16:23;3.33;;;0.80;;
22015;SDS011;64992;51.698;-0.292;2024-03-02T09:18:49;6.18;;;0.82;;
22015;SDS011;64992;51.698;-0.292;2024-03-02T09:21:15;1.58;;;0.68;;
22015;SDS011;64992;51.698;-0.292;2024-03-02T09:23:41;1.42;;;0.80;;
22015;SDS011;64992;51.698;-0.292;2024-03-02T09:26:09;1.73;;;0.90;;
22015;SDS011;64992;51.698;-0.292;2024-03-02T09:28:35;2.78;;;0.77;;
22015;SDS011;64992;51.698;-0.292;2024-03-02T09:31:01;8.82;;;1.40;;
22015;SDS011;64992;51.698;-0.292;2024-03-02T09:33:27;7.45;;;1.05;;
22015;SDS011;64992;51.698;-0.292;2024-03-02T09:35:53;5.20;;;0.70;;
22015;SDS011;64992;51.698;-0.292;2024-03-02T09:38:19;7.60;;;1.10;;
22015;SDS011;64992;51.698;-0.292;2024-03-02T09:40:46;13.88;;;1.85;;
22015;SDS011;64992;51.698;-0.292;2024-03-02T09:43:12;8.85;;;1.13;;
22015;SDS011;64992;51.698;-0.292;2024-03-02T09:45:38;11.85;;;1.10;;
22015;SDS011;64992;51.698;-0.292;2024-03-02T09:48:05;7.43;;;1.00;;
22015;SDS011;64992;51.698;-0.292;2024-03-02T09:50:31;1.67;;;0.80;;
22015;SDS011;64992;51.698;-0.292;2024-03-02T09:52:57;1.73;;;0.80;;
22015;SDS011;64992;51.698;-0.292;2024-03-02T09:55:24;1.50;;;0.90;;
22015;SDS011;64992;51.698;-0.292;2024-03-02T09:57:51;5.57;;;1.50;;
22015;SDS011;64992;51.698;-0.292;2024-03-02T10:00:17;2.35;;;0.90;;
22015;SDS011;64992;51.698;-0.292;2024-03-02T10:02:43;4.80;;;0.80;;
22015;SDS011;64992;51.698;-0.292;2024-03-02T10:05:10;7.72;;;1.05;;
22015;SDS011;64992;51.698;-0.292;2024-03-02T10:07:39;2.08;;;0.90;;
22015;SDS011;64992;51.698;-0.292;2024-03-02T10:10:15;2.25;;;1.15;;
22015;SDS011;64992;51.698;-0.292;2024-03-02T10:12:41;2.33;;;1.10;;
22015;SDS011;64992;51.698;-0.292;2024-03-02T10:15:08;1.17;;;0.70;;
22015;SDS011;64992;51.698;-0.292;2024-03-02T10:17:35;2.92;;;0.73;;
22015;SDS011;64992;51.698;-0.292;2024-03-02T10:22:45;2.80;;;1.00;;
22015;SDS011;64992;51.698;-0.292;2024-03-02T10:25:27;9.15;;;1.45;;
22015;SDS011;64992;51.698;-0.292;2024-03-02T10:27:56;1.65;;;0.77;;
22015;SDS011;64992;51.698;-0.292;2024-03-02T10:30:23;2.10;;;1.00;;
22015;SDS011;64992;51.698;-0.292;2024-03-02T10:32:49;2.30;;;0.73;;
22015;SDS011;64992;51.698;-0.292;2024-03-02T10:35:16;2.03;;;0.77;;
22015;SDS011;64992;51.698;-0.292;2024-03-02T10:37:42;4.50;;;0.80;;
22015;SDS011;64992;51.698;-0.292;2024-03-02T10:40:10;1.75;;;1.00;;
22015;SDS011;64992;51.698;-0.292;2024-03-02T10:42:37;3.03;;;0.90;;
22015;SDS011;64992;51.698;-0.292;2024-03-02T10:45:04;1.05;;;0.90;;
22015;SDS011;64992;51.698;-0.292;2024-03-02T10:47:31;1.20;;;1.10;;
22015;SDS011;64992;51.698;-0.292;2024-03-02T10:49:58;0.90;;;0.90;;
22015;SDS011;64992;51.698;-0.292;2024-03-02T10:52:25;1.00;;;0.98;;
22015;SDS011;64992;51.698;-0.292;2024-03-02T10:54:51;2.65;;;1.40;;
22015;SDS011;64992;51.698;-0.292;2024-03-02T10:57:17;2.80;;;0.93;;
22015;SDS011;64992;51.698;-0.292;2024-03-02T10:59:51;2.30;;;1.00;;
22015;SDS011;64992;51.698;-0.292;2024-03-02T11:02:17;1.10;;;1.00;;
22015;SDS011;64992;51.698;-0.292;2024-03-02T11:04:47;1.27;;;1.05;;
22015;SDS011;64992;51.698;-0.292;2024-03-02T11:07:15;1.23;;;1.13;;
22015;SDS011;64992;51.698;-0.292;2024-03-02T11:09:49;1.10;;;1.00;;
22015;SDS011;64992;51.698;-0.292;2024-03-02T11:12:23;0.98;;;0.90;;
22015;SDS011;64992;51.698;-0.292;2024-03-02T11:14:52;2.15;;;0.90;;
22015;SDS011;64992;51.698;-0.292;2024-03-02T11:17:18;1.08;;;0.90;;
22015;SDS011;64992;51.698;-0.292;2024-03-02T11:19:45;3.13;;;2.80;;
22015;SDS011;64992;51.698;-0.292;2024-03-02T11:22:12;1.10;;;1.00;;
22015;SDS011;64992;51.698;-0.292;2024-03-02T11:24:38;2.63;;;0.90;;
22015;SDS011;64992;51.698;-0.292;2024-03-02T11:27:07;2.03;;;0.90;;
22015;SDS011;64992;51.698;-0.292;2024-03-02T11:32:03;1.20;;;0.80;;
22015;SDS011;64992;51.698;-0.292;2024-03-02T11:34:30;2.00;;;1.52;;
22015;SDS011;64992;51.698;-0.292;2024-03-02T11:36:56;1.20;;;0.77;;
22015;SDS011;64992;51.698;-0.292;2024-03-02T11:39:24;2.65;;;1.15;;
22015;SDS011;64992;51.698;-0.292;2024-03-02T11:41:50;0.95;;;0.80;;
22015;SDS011;64992;51.698;-0.292;2024-03-02T11:44:15;0.70;;;0.70;;
22015;SDS011;64992;51.698;-0.292;2024-03-02T11:46:42;3.17;;;1.40;;
22015;SDS011;64992;51.698;-0.292;2024-03-02T11:49:14;0.95;;;0.85;;
22015;SDS011;64992;51.698;-0.292;2024-03-02T11:51:50;1.58;;;0.80;;
22015;SDS011;64992;51.698;-0.292;2024-03-02T11:54:18;1.25;;;1.20;;
22015;SDS011;64992;51.698;-0.292;2024-03-02T11:56:45;1.45;;;1.27;;
22015;SDS011;64992;51.698;-0.292;2024-03-02T11:59:11;1.75;;;1.00;;
22015;SDS011;64992;51.698;-0.292;2024-03-02T12:01:37;1.05;;;0.82;;
22015;SDS011;64992;51.698;-0.292;2024-03-02T12:04:04;0.82;;;0.77;;
22015;SDS011;64992;51.698;-0.292;2024-03-02T12:06:31;0.68;;;0.68;;
22015;SDS011;64992;51.698;-0.292;2024-03-02T12:08:57;1.95;;;0.77;;
22015;SDS011;64992;51.698;-0.292;2024-03-02T12:11:23;3.22;;;0.88;;
22015;SDS011;64992;51.698;-0.292;2024-03-02T12:13:52;1.50;;;0.85;;
22015;SDS011;64992;51.698;-0.292;2024-03-02T12:16:24;1.05;;;0.93;;
22015;SDS011;64992;51.698;-0.292;2024-03-02T12:18:50;3.70;;;1.05;;
22015;SDS011;64992;51.698;-0.292;2024-03-02T12:21:16;2.30;;;1.23;;
22015;SDS011;64992;51.698;-0.292;2024-03-02T12:23:43;1.65;;;1.15;;
22015;SDS011;64992;51.698;-0.292;2024-03-02T12:26:09;2.45;;;1.40;;
22015;SDS011;64992;51.698;-0.292;2024-03-02T12:28:35;1.00;;;1.00;;
22015;SDS011;64992;51.698;-0.292;2024-03-02T12:31:01;1.30;;;1.10;;
22015;SDS011;64992;51.698;-0.292;2024-03-02T12:33:27;1.40;;;1.30;;
22015;SDS011;64992;51.698;-0.292;2024-03-02T12:35:54;3.72;;;1.52;;
22015;SDS011;64992;51.698;-0.292;2024-03-02T12:38:22;2.40;;;1.20;;
22015;SDS011;64992;51.698;-0.292;2024-03-02T12:40:51;1.02;;;0.93;;
22015;SDS011;64992;51.698;-0.292;2024-03-02T12:43:20;2.25;;;0.95;;
22015;SDS011;64992;51.698;-0.292;2024-03-02T12:45:46;1.20;;;1.10;;
22015;SDS011;64992;51.698;-0.292;2024-03-02T12:48:12;2.10;;;1.10;;
22015;SDS011;64992;51.698;-0.292;2024-03-02T12:50:39;1.02;;;1.00;;
22015;SDS011;64992;51.698;-0.292;2024-03-02T12:53:05;1.30;;;1.10;;
22015;SDS011;64992;51.698;-0.292;2024-03-02T12:55:33;1.70;;;1.20;;
22015;SDS011;64992;51.698;-0.292;2024-03-02T12:57:59;3.30;;;1.20;;
22015;SDS011;64992;51.698;-0.292;2024-03-02T13:00:28;2.13;;;1.10;;
22015;SDS011;64992;51.698;-0.292;2024-03-02T13:02:57;2.70;;;1.00;;
22015;SDS011;64992;51.698;-0.292;2024-03-02T13:05:29;1.95;;;1.23;;
22015;SDS011;64992;51.698;-0.292;2024-03-02T13:07:55;2.28;;;1.45;;
22015;SDS011;64992;51.698;-0.292;2024-03-02T13:10:21;2.95;;;1.30;;
22015;SDS011;64992;51.698;-0.292;2024-03-02T13:12:48;1.10;;;1.00;;
22015;SDS011;64992;51.698;-0.292;2024-03-02T13:15:14;1.15;;;1.05;;
22015;SDS011;64992;51.698;-0.292;2024-03-02T13:17:40;1.60;;;1.10;;
22015;SDS011;64992;51.698;-0.292;2024-03-02T13:20:07;1.40;;;1.10;;
22015;SDS011;64992;51.698;-0.292;2024-03-02T13:22:35;1.52;;;1.00;;
22015;SDS011;64992;51.698;-0.292;2024-03-02T13:25:01;2.47;;;0.98;;
22015;SDS011;64992;51.698;-0.292;2024-03-02T13:27:29;1.10;;;1.00;;
22015;SDS011;64992;51.698;-0.292;2024-03-02T13:29:56;2.13;;;1.23;;
22015;SDS011;64992;51.698;-0.292;2024-03-02T13:32:23;4.63;;;2.10;;
22015;SDS011;64992;51.698;-0.292;2024-03-02T13:34:51;7.68;;;1.42;;
22015;SDS011;64992;51.698;-0.292;2024-03-02T13:37:17;3.67;;;1.33;;
22015;SDS011;64992;51.698;-0.292;2024-03-02T13:39:43;3.10;;;1.70;;
22015;SDS011;64992;51.698;-0.292;2024-03-02T13:42:12;4.88;;;1.35;;
22015;SDS011;64992;51.698;-0.292;2024-03-02T13:44:40;3.25;;;1.50;;
22015;SDS011;64992;51.698;-0.292;2024-03-02T13:47:06;4.18;;;1.50;;
22015;SDS011;64992;51.698;-0.292;2024-03-02T13:49:32;4.10;;;2.45;;
22015;SDS011;64992;51.698;-0.292;2024-03-02T13:52:00;2.22;;;1.10;;
22015;SDS011;64992;51.698;-0.292;2024-03-02T13:54:28;3.95;;;1.35;;
22015;SDS011;64992;51.698;-0.292;2024-03-02T13:56:54;5.70;;;1.30;;
22015;SDS011;64992;51.698;-0.292;2024-03-02T13:59:20;2.22;;;1.20;;
22015;SDS011;64992;51.698;-0.292;2024-03-02T14:01:46;2.35;;;1.40;;
22015;SDS011;64992;51.698;-0.292;2024-03-02T14:04:12;1.92;;;1.52;;
22015;SDS011;64992;51.698;-0.292;2024-03-02T14:06:38;4.22;;;1.40;;
22015;SDS011;64992;51.698;-0.292;2024-03-02T14:09:04;1.88;;;1.40;;
22015;SDS011;64992;51.698;-0.292;2024-03-02T14:11:30;3.80;;;1.10;;
22015;SDS011;64992;51.698;-0.292;2024-03-02T14:13:56;4.85;;;1.55;;
22015;SDS011;64992;51.698;-0.292;2024-03-02T14:16:22;1.02;;;1.02;;
22015;SDS011;64992;51.698;-0.292;2024-03-02T14:18:48;2.58;;;1.10;;
22015;SDS011;64992;51.698;-0.292;2024-03-02T14:21:14;2.45;;;1.30;;
22015;SDS011;64992;51.698;-0.292;2024-03-02T14:23:40;4.10;;;1.60;;
22015;SDS011;64992;51.698;-0.292;2024-03-02T14:26:06;1.20;;;1.05;;
22015;SDS011;64992;51.698;-0.292;2024-03-02T14:28:32;2.28;;;1.45;;
22015;SDS011;64992;51.698;-0.292;2024-03-02T14:30:59;5.00;;;1.70;;
22015;SDS011;64992;51.698;-0.292;2024-03-02T14:33:26;1.50;;;1.38;;